Time;durP1;ratioP1;P1;durP2;ratioP2;P2;SDS_P1;SDS_P2;PMS_P1;PMS_P2;Temp;Humidity;BMP_temperature;BMP_pressure;BME280_temperature;BME280_humidity;BME280_pressure;Samples;Min_cycle;Max_cycle;Signal;HPM_P1;HPM_P2
2022/08/30 00:01:05;;;;;;;2.03;1.93;;;33.20;53.50;;;;;;5084234;28;20441;-66
2022/08/30 00:03:39;;;;;;;1.90;1.80;;;33.00;53.70;;;;;;5083889;28;20469;-66
2022/08/30 00:06:13;;;;;;;2.23;2.13;;;33.00;53.60;;;;;;5083432;28;20454;-66
2022/08/30 00:08:45;;;;;;;1.90;1.80;;;32.90;53.40;;;;;;5083808;28;20591;-66
2022/08/30 00:11:18;;;;;;;2.23;2.13;;;32.80;53.60;;;;;;5083615;28;20454;-66
2022/08/30 00:13:50;;;;;;;2.30;2.13;;;32.80;54.30;;;;;;5083379;28;20489;-66
2022/08/30 00:16:22;;;;;;;1.93;1.83;;;32.80;55.00;;;;;;5083241;28;20423;-65
2022/08/30 00:18:54;;;;;;;1.90;1.73;;;32.80;55.00;;;;;;5083725;28;20423;-65
2022/08/30 00:21:27;;;;;;;2.00;1.90;;;32.80;53.70;;;;;;5083030;28;20454;-65
2022/08/30 00:23:58;;;;;;;2.03;1.93;;;32.80;53.50;;;;;;5083589;28;20958;-66
2022/08/30 00:26:29;;;;;;;1.93;1.83;;;32.70;53.90;;;;;;5083676;28;20461;-65
2022/08/30 00:28:59;;;;;;;2.50;2.03;;;32.50;54.90;;;;;;5083216;28;20533;-66
2022/08/30 00:31:30;;;;;;;2.10;1.93;;;32.40;54.70;;;;;;5083535;28;20449;-66
2022/08/30 00:34:01;;;;;;;2.03;1.93;;;32.30;55.60;;;;;;5083243;28;20576;-66
2022/08/30 00:36:33;;;;;;;1.90;1.80;;;32.20;55.60;;;;;;5082950;28;20497;-66
2022/08/30 00:39:05;;;;;;;2.10;1.90;;;32.10;55.30;;;;;;5083089;28;20931;-66
2022/08/30 00:41:37;;;;;;;1.80;1.70;;;32.00;55.40;;;;;;5083118;28;20451;-66
2022/08/30 00:44:08;;;;;;;1.80;1.70;;;32.00;55.60;;;;;;5083117;28;20470;-66
2022/08/30 00:46:39;;;;;;;1.70;1.60;;;32.00;55.80;;;;;;5083466;28;20466;-65
2022/08/30 00:49:13;;;;;;;4.80;2.23;;;32.00;55.50;;;;;;5083228;28;20487;-66
2022/08/30 00:51:46;;;;;;;1.63;1.53;;;31.80;55.80;;;;;;5082489;28;20445;-66
2022/08/30 00:54:17;;;;;;;2.03;1.93;;;31.70;55.40;;;;;;5083238;28;20492;-66
2022/08/30 00:56:49;;;;;;;2.40;2.23;;;31.70;55.90;;;;;;5083044;28;20455;-66
2022/08/30 00:59:23;;;;;;;1.70;1.60;;;31.60;56.10;;;;;;5083111;28;20456;-67
2022/08/30 01:01:54;;;;;;;2.03;1.90;;;31.50;56.50;;;;;;5083214;28;20538;-66
2022/08/30 01:04:26;;;;;;;2.17;2.00;;;31.50;57.40;;;;;;5082933;28;20457;-66
2022/08/30 01:06:59;;;;;;;2.23;2.13;;;31.40;57.80;;;;;;5082499;28;20454;-66
2022/08/30 01:09:30;;;;;;;2.20;2.10;;;31.40;58.60;;;;;;5083148;28;20460;-66
2022/08/30 01:12:01;;;;;;;1.90;1.80;;;31.40;57.50;;;;;;5082979;28;20457;-66
2022/08/30 01:14:33;;;;;;;1.93;1.73;;;31.40;58.30;;;;;;5082850;28;20484;-67
2022/08/30 01:17:05;;;;;;;3.03;2.73;;;31.40;58.60;;;;;;5083096;28;20896;-66
2022/08/30 01:19:41;;;;;;;2.43;2.23;;;31.40;58.10;;;;;;5082809;28;20454;-66
2022/08/30 01:22:24;;;;;;;2.37;2.17;;;31.40;58.30;;;;;;5082263;28;20458;-66
2022/08/30 01:24:59;;;;;;;2.37;2.13;;;31.30;59.20;;;;;;5082948;28;20454;-66
2022/08/30 01:27:31;;;;;;;2.80;2.20;;;31.20;59.10;;;;;;5085470;28;20446;-66
2022/08/30 01:30:03;;;;;;;2.40;2.20;;;31.20;58.30;;;;;;5086475;28;20456;-66
2022/08/30 01:32:40;;;;;;;2.77;2.57;;;31.20;58.80;;;;;;5086702;28;20437;-66
2022/08/30 01:35:12;;;;;;;2.60;2.40;;;31.20;59.40;;;;;;5087152;28;20620;-66
2022/08/30 01:37:43;;;;;;;2.90;2.70;;;31.10;59.10;;;;;;5085906;28;20459;-66
2022/08/30 01:40:17;;;;;;;2.00;1.83;;;31.00;59.10;;;;;;5086841;28;20454;-66
2022/08/30 01:42:48;;;;;;;1.80;1.70;;;30.90;59.70;;;;;;5086322;28;20477;-66
2022/08/30 01:45:19;;;;;;;1.90;1.80;;;30.90;60.30;;;;;;5086426;28;20450;-66
2022/08/30 01:47:50;;;;;;;2.23;2.03;;;30.80;59.90;;;;;;5086678;28;20429;-66
2022/08/30 01:50:21;;;;;;;2.13;2.03;;;30.80;60.50;;;;;;5086572;28;20446;-66
2022/08/30 01:52:52;;;;;;;2.23;2.03;;;30.70;61.50;;;;;;5085577;28;20915;-66
2022/08/30 01:55:24;;;;;;;2.10;2.00;;;30.70;60.90;;;;;;5086372;28;20586;-66
2022/08/30 01:57:55;;;;;;;2.03;1.90;;;30.60;62.30;;;;;;5085985;28;20457;-66
2022/08/30 02:00:26;;;;;;;2.40;2.30;;;30.50;62.20;;;;;;5086406;28;20434;-66
2022/08/30 02:02:57;;;;;;;3.00;2.80;;;30.50;63.00;;;;;;5086084;28;20453;-66
2022/08/30 02:05:28;;;;;;;10.93;8.30;;;30.40;63.60;;;;;;5086271;28;20458;-66
2022/08/30 02:07:59;;;;;;;9.97;7.37;;;30.30;64.60;;;;;;5085476;28;20790;-65
2022/08/30 02:10:32;;;;;;;8.67;7.87;;;30.30;64.80;;;;;;5086171;28;20454;-65
2022/08/30 02:13:03;;;;;;;3.10;2.83;;;30.20;64.80;;;;;;5085587;28;20463;-66
2022/08/30 02:15:34;;;;;;;3.90;3.27;;;30.30;62.70;;;;;;5085810;28;20497;-65
2022/08/30 02:18:11;;;;;;;4.47;4.07;;;30.20;63.60;;;;;;5086358;28;20448;-65
2022/08/30 02:20:41;;;;;;;7.10;6.50;;;30.10;63.40;;;;;;5085676;28;20461;-65
2022/08/30 02:23:12;;;;;;;3.40;3.10;;;30.10;63.50;;;;;;5085621;28;20458;-65
2022/08/30 02:25:46;;;;;;;2.90;2.70;;;30.00;62.90;;;;;;5085670;28;20456;-65
2022/08/30 02:28:18;;;;;;;3.40;3.17;;;29.90;63.50;;;;;;5085824;28;20562;-65
2022/08/30 02:30:49;;;;;;;2.43;2.23;;;29.80;64.10;;;;;;5085701;28;20445;-65
2022/08/30 02:33:21;;;;;;;2.87;2.67;;;29.80;63.60;;;;;;5098780;28;20433;-65
2022/08/30 02:35:51;;;;;;;2.97;2.77;;;29.70;64.20;;;;;;5105261;28;20455;-66
2022/08/30 02:38:22;;;;;;;3.03;2.60;;;29.60;64.30;;;;;;5105027;28;20461;-65
2022/08/30 02:40:54;;;;;;;2.73;2.50;;;29.60;64.00;;;;;;5105667;28;20466;-65
2022/08/30 02:43:25;;;;;;;2.67;2.47;;;29.50;64.20;;;;;;5105304;28;20486;-65
2022/08/30 02:45:57;;;;;;;3.27;3.03;;;29.40;64.90;;;;;;5105756;28;20928;-66
2022/08/30 02:48:28;;;;;;;3.07;2.87;;;29.30;65.50;;;;;;5106132;28;20456;-65
2022/08/30 02:51:06;;;;;;;2.97;2.57;;;29.20;65.30;;;;;;5104866;28;20536;-65
2022/08/30 02:53:40;;;;;;;3.10;2.63;;;29.20;65.60;;;;;;5105270;28;20448;-65
2022/08/30 02:56:14;;;;;;;2.63;2.43;;;29.00;66.40;;;;;;5105557;28;20864;-65
2022/08/30 02:58:47;;;;;;;3.10;2.80;;;29.00;66.60;;;;;;5105381;28;20437;-65
2022/08/30 03:01:18;;;;;;;3.00;2.63;;;28.80;67.80;;;;;;5105118;28;20467;-66
2022/08/30 03:03:49;;;;;;;3.07;2.40;;;28.70;68.80;;;;;;5103191;28;20448;-65
2022/08/30 03:06:20;;;;;;;3.07;2.70;;;28.50;69.20;;;;;;5084684;28;20446;-65
2022/08/30 03:08:51;;;;;;;3.10;2.80;;;28.40;69.60;;;;;;5085092;28;20453;-65
2022/08/30 03:11:23;;;;;;;2.23;2.00;;;28.40;68.40;;;;;;5084793;28;20458;-65
2022/08/30 03:13:54;;;;;;;2.30;2.20;;;28.20;69.20;;;;;;5084454;28;20475;-65
2022/08/30 03:16:25;;;;;;;2.87;2.67;;;28.30;67.90;;;;;;5084757;28;20438;-65
2022/08/30 03:18:56;;;;;;;2.70;2.50;;;28.10;68.90;;;;;;5085127;28;20442;-65
2022/08/30 03:21:26;;;;;;;2.97;2.77;;;28.00;69.10;;;;;;5084117;28;20450;-65
2022/08/30 03:23:57;;;;;;;1.80;1.70;;;28.00;68.70;;;;;;5084455;28;20444;-65
2022/08/30 03:26:29;;;;;;;2.53;2.33;;;27.90;68.80;;;;;;5084601;28;20448;-65
2022/08/30 03:29:00;;;;;;;3.37;2.47;;;27.90;68.50;;;;;;5084814;28;20447;-65
2022/08/30 03:31:31;;;;;;;2.23;2.03;;;27.80;68.10;;;;;;5084443;28;20435;-65
2022/08/30 03:34:10;;;;;;;2.90;2.43;;;27.80;68.20;;;;;;5084389;28;20476;-65
2022/08/30 03:36:40;;;;;;;2.60;2.40;;;27.70;68.20;;;;;;5083951;28;20458;-65
2022/08/30 03:39:11;;;;;;;3.03;2.73;;;27.60;69.20;;;;;;5084479;28;20456;-65
2022/08/30 03:41:44;;;;;;;2.30;2.10;;;27.50;69.50;;;;;;5084032;28;20469;-65
2022/08/30 03:44:15;;;;;;;2.83;2.57;;;27.40;69.00;;;;;;5083889;28;20452;-65
2022/08/30 03:46:47;;;;;;;2.30;2.10;;;27.30;69.60;;;;;;5084110;28;20454;-65
2022/08/30 03:49:18;;;;;;;2.07;1.87;;;27.20;69.80;;;;;;5083996;28;20438;-65
2022/08/30 03:51:48;;;;;;;2.50;2.30;;;27.10;70.20;;;;;;5082798;28;20481;-65
2022/08/30 03:54:19;;;;;;;2.40;2.20;;;27.00;70.20;;;;;;5083813;28;20462;-65
2022/08/30 03:56:55;;;;;;;3.10;2.10;;;26.90;70.90;;;;;;5083898;28;20466;-66
2022/08/30 03:59:26;;;;;;;1.87;1.77;;;26.90;71.30;;;;;;5084016;28;20454;-66
2022/08/30 04:01:57;;;;;;;1.70;1.60;;;26.80;71.50;;;;;;5083537;28;20438;-65
2022/08/30 04:04:28;;;;;;;2.07;1.93;;;26.70;71.50;;;;;;5084025;28;20454;-65
2022/08/30 04:06:59;;;;;;;1.93;1.83;;;26.60;71.40;;;;;;5083099;28;20536;-65
2022/08/30 04:09:30;;;;;;;2.03;1.83;;;26.50;71.50;;;;;;5083862;28;20454;-65
2022/08/30 04:12:02;;;;;;;1.70;1.60;;;26.50;71.40;;;;;;5083544;28;20442;-65
2022/08/30 04:14:33;;;;;;;2.03;1.60;;;26.40;71.20;;;;;;5083359;28;20485;-65
2022/08/30 04:17:04;;;;;;;1.93;1.83;;;26.40;71.10;;;;;;5083682;28;20432;-65
2022/08/30 04:19:35;;;;;;;2.40;1.83;;;26.30;71.50;;;;;;5083941;28;20437;-65
2022/08/30 04:22:06;;;;;;;1.90;1.80;;;26.30;71.30;;;;;;5082990;28;20445;-65
2022/08/30 04:24:37;;;;;;;1.60;1.50;;;26.30;71.30;;;;;;5083528;28;21012;-65
2022/08/30 04:27:10;;;;;;;1.77;1.67;;;26.20;71.70;;;;;;5083298;28;20464;-65
2022/08/30 04:29:41;;;;;;;1.63;1.47;;;26.10;71.80;;;;;;5083581;28;20450;-65
2022/08/30 04:32:11;;;;;;;1.30;1.20;;;26.00;72.20;;;;;;5083306;28;20434;-66
2022/08/30 04:34:42;;;;;;;4.30;1.83;;;25.90;71.90;;;;;;5083506;28;20450;-65
2022/08/30 04:37:13;;;;;;;1.63;1.53;;;25.90;72.10;;;;;;5082858;28;20454;-65
2022/08/30 04:39:45;;;;;;;1.47;1.37;;;25.80;71.70;;;;;;5083404;28;20461;-66
2022/08/30 04:42:17;;;;;;;1.70;1.60;;;25.80;71.90;;;;;;5083120;28;20478;-66
2022/08/30 04:44:49;;;;;;;1.63;1.53;;;25.70;72.70;;;;;;5083136;28;20446;-66
2022/08/30 04:47:20;;;;;;;1.87;1.57;;;25.70;72.10;;;;;;5083102;28;20463;-66
2022/08/30 04:49:51;;;;;;;2.17;1.47;;;25.60;73.20;;;;;;5083750;28;20430;-66
2022/08/30 04:52:22;;;;;;;1.57;1.47;;;25.60;74.20;;;;;;5082754;28;20448;-66
2022/08/30 04:54:56;;;;;;;1.80;1.63;;;25.50;74.80;;;;;;5083224;28;20454;-66
2022/08/30 04:57:29;;;;;;;1.90;1.70;;;25.40;76.00;;;;;;5083049;28;20456;-66
2022/08/30 05:00:00;;;;;;;1.40;1.30;;;25.30;76.10;;;;;;5083313;28;20445;-66
2022/08/30 05:02:31;;;;;;;1.90;1.50;;;25.10;78.70;;;;;;5082581;28;20421;-66
2022/08/30 05:07:51;;;;;;;2.07;1.60;;;24.90;79.40;;;;;;5082566;28;20534;-66
2022/08/30 05:10:22;;;;;;;1.50;1.40;;;24.90;79.90;;;;;;5083172;28;20467;-66
2022/08/30 05:12:54;;;;;;;2.17;1.53;;;24.80;80.60;;;;;;5082953;28;20525;-66
2022/08/30 05:15:25;;;;;;;1.90;1.80;;;24.70;78.20;;;;;;5082826;28;21067;-66
2022/08/30 05:17:56;;;;;;;1.90;1.80;;;24.60;80.20;;;;;;5082889;28;21671;-66
2022/08/30 05:20:27;;;;;;;1.73;1.53;;;24.60;80.20;;;;;;5083418;28;20433;-66
2022/08/30 05:22:58;;;;;;;1.70;1.60;;;24.60;80.70;;;;;;5082358;28;20455;-66
2022/08/30 05:25:30;;;;;;;2.57;1.80;;;24.50;82.00;;;;;;5082875;28;20471;-66
2022/08/30 05:28:03;;;;;;;1.70;1.60;;;24.40;82.40;;;;;;5082904;28;20451;-66
2022/08/30 05:30:34;;;;;;;1.60;1.30;;;24.30;82.20;;;;;;5082998;28;20451;-66
2022/08/30 05:33:05;;;;;;;1.60;1.50;;;24.30;83.10;;;;;;5082868;28;20435;-66
2022/08/30 05:35:36;;;;;;;1.40;1.30;;;24.30;81.50;;;;;;5082926;28;20491;-66
2022/08/30 05:38:07;;;;;;;1.70;1.60;;;24.20;79.20;;;;;;5082560;28;20448;-66
2022/08/30 05:40:42;;;;;;;2.10;1.90;;;24.20;80.70;;;;;;5082929;28;20642;-66
2022/08/30 05:43:14;;;;;;;1.80;1.70;;;24.20;79.50;;;;;;5082483;28;20479;-65
2022/08/30 05:45:45;;;;;;;1.73;1.63;;;24.20;79.80;;;;;;5082510;28;20444;-66
2022/08/30 05:48:16;;;;;;;2.37;1.63;;;24.20;79.80;;;;;;5082787;28;20442;-66
2022/08/30 05:50:47;;;;;;;2.90;2.07;;;24.10;80.80;;;;;;5082283;28;20802;-65
2022/08/30 05:53:18;;;;;;;1.60;1.50;;;24.00;81.40;;;;;;5082765;28;20810;-65
2022/08/30 05:55:49;;;;;;;1.77;1.67;;;24.00;83.50;;;;;;5082470;28;20487;-65
2022/08/30 05:58:21;;;;;;;2.00;1.80;;;24.00;84.40;;;;;;5082677;28;20453;-66
2022/08/30 06:00:52;;;;;;;1.80;1.70;;;23.80;84.80;;;;;;5082630;28;20461;-66
2022/08/30 06:03:23;;;;;;;1.60;1.50;;;23.80;85.10;;;;;;5082292;28;20445;-65
2022/08/30 06:05:56;;;;;;;3.13;1.73;;;23.70;84.00;;;;;;5082254;28;20831;-65
2022/08/30 06:08:26;;;;;;;3.40;1.63;;;23.70;84.60;;;;;;5082619;28;20443;-65
2022/08/30 06:10:57;;;;;;;1.60;1.50;;;23.50;84.70;;;;;;5082394;28;20462;-65
2022/08/30 06:13:31;;;;;;;1.77;1.67;;;23.50;84.90;;;;;;5083181;28;20458;-66
2022/08/30 06:16:03;;;;;;;3.03;1.43;;;23.50;85.70;;;;;;5085756;28;20491;-66
2022/08/30 06:18:34;;;;;;;1.60;1.50;;;23.40;85.30;;;;;;5085926;28;20439;-65
2022/08/30 06:21:05;;;;;;;1.57;1.43;;;23.40;85.80;;;;;;5085692;28;20993;-66
2022/08/30 06:23:40;;;;;;;1.60;1.50;;;23.30;85.00;;;;;;5085772;28;20489;-65
2022/08/30 06:26:11;;;;;;;1.77;1.67;;;23.30;83.80;;;;;;5085377;28;20455;-66
2022/08/30 06:28:44;;;;;;;1.77;1.67;;;23.40;83.80;;;;;;5085735;28;20455;-66
2022/08/30 06:31:17;;;;;;;1.60;1.50;;;23.50;84.20;;;;;;5085773;28;20948;-66
2022/08/30 06:33:49;;;;;;;1.70;1.60;;;23.40;84.20;;;;;;5085798;28;20402;-66
2022/08/30 06:36:21;;;;;;;1.63;1.50;;;23.40;82.20;;;;;;5084963;28;20479;-66
2022/08/30 06:38:53;;;;;;;1.70;1.60;;;23.40;82.50;;;;;;5085546;28;20447;-66
2022/08/30 06:41:27;;;;;;;1.63;1.53;;;23.50;82.70;;;;;;5085511;28;20439;-65
2022/08/30 06:44:01;;;;;;;2.37;2.00;;;23.40;83.50;;;;;;5085183;28;20476;-65
2022/08/30 06:46:33;;;;;;;1.60;1.50;;;23.30;83.70;;;;;;5085207;28;20481;-66
2022/08/30 06:49:06;;;;;;;1.90;1.77;;;23.20;84.90;;;;;;5085908;28;20455;-65
2022/08/30 06:51:39;;;;;;;1.87;1.47;;;23.10;86.40;;;;;;5085182;28;20436;-65
2022/08/30 06:54:13;;;;;;;2.13;1.50;;;23.10;88.30;;;;;;5085388;28;20475;-65
2022/08/30 06:56:43;;;;;;;1.77;1.67;;;23.00;88.70;;;;;;5084981;28;20510;-65
2022/08/30 06:59:30;;;;;;;1.63;1.53;;;22.90;88.00;;;;;;5085370;28;20454;-65
2022/08/30 07:02:01;;;;;;;2.17;1.90;;;22.80;87.40;;;;;;5085249;28;20451;-65
2022/08/30 07:04:32;;;;;;;2.00;1.80;;;22.80;88.50;;;;;;5085329;28;20928;-66
2022/08/30 07:07:02;;;;;;;2.17;2.07;;;22.70;89.80;;;;;;5084440;28;20429;-66
2022/08/30 07:09:34;;;;;;;1.73;1.63;;;22.70;90.30;;;;;;5085572;28;20428;-65
2022/08/30 07:12:05;;;;;;;1.73;1.63;;;22.60;90.20;;;;;;5084918;28;20558;-65
2022/08/30 07:14:38;;;;;;;1.70;1.53;;;22.60;90.50;;;;;;5084952;28;20448;-65
2022/08/30 07:19:54;;;;;;;1.90;1.80;;;22.40;90.20;;;;;;5084971;28;20426;-65
2022/08/30 07:22:24;;;;;;;1.50;1.40;;;22.40;90.20;;;;;;5084475;28;20442;-65
2022/08/30 07:24:55;;;;;;;2.87;2.20;;;22.30;90.00;;;;;;5084834;28;20427;-65
2022/08/30 07:27:26;;;;;;;2.40;2.20;;;22.30;90.50;;;;;;5084610;28;20418;-64
2022/08/30 07:29:59;;;;;;;2.13;1.93;;;22.30;90.50;;;;;;5084815;28;20469;-65
2022/08/30 07:32:32;;;;;;;2.33;2.00;;;22.30;90.50;;;;;;5084466;28;20455;-66
2022/08/30 07:35:03;;;;;;;2.60;1.70;;;22.30;90.30;;;;;;5084826;28;20444;-66
2022/08/30 07:37:34;;;;;;;1.70;1.60;;;22.20;90.40;;;;;;5083843;28;20634;-65
2022/08/30 07:40:05;;;;;;;2.80;1.97;;;22.20;90.00;;;;;;5084903;28;20470;-65
2022/08/30 07:42:36;;;;;;;2.60;1.80;;;22.20;90.00;;;;;;5084411;28;20486;-65
2022/08/30 07:45:10;;;;;;;1.90;1.80;;;22.20;89.20;;;;;;5084524;28;20453;-65
2022/08/30 07:47:42;;;;;;;2.07;1.97;;;22.20;88.90;;;;;;5084200;28;20452;-65
2022/08/30 07:50:13;;;;;;;2.27;2.07;;;22.20;90.00;;;;;;5084333;28;20444;-65
2022/08/30 07:52:43;;;;;;;2.43;2.03;;;22.20;90.10;;;;;;5084054;28;20428;-65
2022/08/30 07:55:14;;;;;;;1.93;1.70;;;22.10;90.40;;;;;;5084495;28;20424;-65
2022/08/30 07:57:45;;;;;;;2.23;2.03;;;22.10;90.40;;;;;;5083867;28;20490;-65
2022/08/30 08:00:18;;;;;;;2.27;2.10;;;22.10;89.90;;;;;;5084054;28;20443;-65
2022/08/30 08:02:49;;;;;;;2.23;1.80;;;22.10;90.30;;;;;;5084060;28;20447;-65
2022/08/30 08:05:20;;;;;;;1.60;1.50;;;22.00;90.80;;;;;;5084115;28;20763;-65
2022/08/30 08:07:53;;;;;;;1.70;1.60;;;22.00;90.90;;;;;;5083224;28;20540;-65
2022/08/30 08:10:24;;;;;;;2.07;1.97;;;21.90;91.40;;;;;;5084402;28;20412;-65
2022/08/30 08:12:55;;;;;;;2.30;1.90;;;21.80;91.90;;;;;;5083551;28;20446;-65
2022/08/30 08:15:28;;;;;;;3.07;1.80;;;21.70;91.90;;;;;;5083999;28;20428;-65
2022/08/30 08:17:59;;;;;;;2.33;1.90;;;21.70;92.70;;;;;;5083350;28;20457;-65
2022/08/30 08:20:30;;;;;;;2.57;2.00;;;21.60;92.90;;;;;;5083692;28;20426;-65
2022/08/30 08:23:01;;;;;;;1.70;1.60;;;21.50;93.80;;;;;;5082850;28;20444;-65
2022/08/30 08:25:32;;;;;;;2.00;1.90;;;21.50;93.60;;;;;;5083926;28;20451;-65
2022/08/30 08:28:03;;;;;;;1.83;1.73;;;21.40;93.80;;;;;;5083255;28;20447;-64
2022/08/30 08:30:37;;;;;;;1.87;1.73;;;21.40;95.10;;;;;;5083809;28;20939;-65
2022/08/30 08:33:09;;;;;;;2.57;2.37;;;21.30;95.50;;;;;;5083592;28;20461;-65
2022/08/30 08:35:40;;;;;;;2.30;2.10;;;21.30;96.00;;;;;;5083189;28;20455;-65
2022/08/30 08:38:11;;;;;;;1.80;1.70;;;21.20;95.70;;;;;;5083234;28;20498;-65
2022/08/30 08:40:49;;;;;;;1.70;1.60;;;21.20;96.20;;;;;;5083581;28;20403;-65
2022/08/30 08:43:23;;;;;;;2.10;2.00;;;21.20;96.90;;;;;;5082987;28;20467;-65
2022/08/30 08:46:01;;;;;;;2.30;2.10;;;21.10;96.50;;;;;;5083395;28;20455;-65
2022/08/30 08:48:35;;;;;;;1.90;1.80;;;21.10;96.10;;;;;;5083215;28;20530;-65
2022/08/30 08:54:26;;;;;;;2.77;2.37;;;21.00;97.30;;;;;;5083262;28;20467;-65
2022/08/30 08:56:57;;;;;;;2.00;1.80;;;20.90;97.00;;;;;;5082637;28;20462;-64
2022/08/30 08:59:27;;;;;;;2.13;1.97;;;20.90;97.40;;;;;;5083508;28;20414;-65
2022/08/30 09:02:03;;;;;;;1.63;1.53;;;20.90;98.40;;;;;;5083372;28;20514;-65
2022/08/30 09:04:38;;;;;;;2.03;1.93;;;20.80;97.90;;;;;;5083481;28;20450;-65
2022/08/30 09:07:19;;;;;;;2.50;2.30;;;20.80;98.50;;;;;;5082658;28;20425;-65
2022/08/30 09:09:50;;;;;;;1.77;1.63;;;20.80;98.30;;;;;;5083297;28;20817;-65
2022/08/30 09:12:21;;;;;;;1.73;1.63;;;20.70;99.20;;;;;;5083181;28;20935;-65
2022/08/30 09:14:55;;;;;;;1.70;1.60;;;20.70;99.20;;;;;;5083231;28;20906;-66
2022/08/30 09:17:29;;;;;;;2.23;2.03;;;20.60;98.50;;;;;;5083150;28;20500;-65
2022/08/30 09:20:01;;;;;;;1.90;1.80;;;20.60;98.70;;;;;;5083272;28;20447;-65
2022/08/30 09:22:36;;;;;;;3.67;2.73;;;20.60;98.50;;;;;;5082436;28;20516;-65
2022/08/30 09:25:11;;;;;;;2.20;1.87;;;20.60;98.30;;;;;;5083172;28;20426;-65
2022/08/30 09:27:44;;;;;;;1.83;1.73;;;20.60;98.90;;;;;;5082946;28;20458;-65
2022/08/30 09:30:18;;;;;;;2.60;2.00;;;20.50;99.10;;;;;;5083155;28;20474;-65
2022/08/30 09:32:55;;;;;;;2.20;1.93;;;20.50;99.50;;;;;;5082952;28;20418;-65
2022/08/30 09:35:33;;;;;;;1.93;1.80;;;20.50;99.40;;;;;;5083305;28;20798;-65
2022/08/30 09:38:07;;;;;;;2.10;1.63;;;20.40;99.80;;;;;;5082317;28;20480;-65
2022/08/30 09:40:40;;;;;;;2.27;2.07;;;20.40;99.90;;;;;;5083037;28;20437;-65
2022/08/30 09:43:20;;;;;;;3.50;1.87;;;20.30;99.90;;;;;;5082560;28;20489;-65
2022/08/30 09:46:09;;;;;;;2.17;2.00;;;20.20;99.90;;;;;;5082806;28;20430;-65
2022/08/30 09:48:47;;;;;;;2.20;2.00;;;20.20;99.90;;;;;;5085864;28;20426;-65
2022/08/30 09:51:44;;;;;;;2.13;1.93;;;20.20;99.90;;;;;;5086161;28;20440;-66
2022/08/30 09:54:22;;;;;;;2.13;1.93;;;20.30;99.90;;;;;;5086886;28;20405;-65
2022/08/30 09:57:04;;;;;;;2.03;1.87;;;20.10;99.90;;;;;;5086777;28;20409;-65
2022/08/30 09:59:49;;;;;;;1.90;1.80;;;20.10;99.90;;;;;;5087059;28;20461;-65
2022/08/30 10:02:41;;;;;;;3.37;1.77;;;20.00;99.90;;;;;;5086438;28;20418;-65
2022/08/30 10:05:21;;;;;;;1.80;1.70;;;19.90;99.90;;;;;;5086567;28;20509;-65
2022/08/30 10:08:00;;;;;;;1.80;1.70;;;19.90;99.90;;;;;;5085779;28;20420;-65
2022/08/30 10:10:36;;;;;;;1.73;1.63;;;19.90;99.90;;;;;;5086266;28;20428;-64
2022/08/30 10:13:33;;;;;;;1.87;1.77;;;19.80;99.90;;;;;;5086257;28;20417;-65
2022/08/30 10:16:14;;;;;;;2.20;1.97;;;19.70;99.90;;;;;;5086292;28;20448;-65
2022/08/30 10:18:55;;;;;;;1.87;1.77;;;19.70;99.90;;;;;;5086174;28;20487;-65
2022/08/30 10:21:38;;;;;;;2.70;2.17;;;19.60;99.90;;;;;;5086091;28;20436;-65
2022/08/30 10:24:12;;;;;;;1.90;1.70;;;19.60;99.90;;;;;;5086742;28;20428;-65
2022/08/30 10:26:53;;;;;;;2.03;1.80;;;19.50;99.90;;;;;;5086156;28;20413;-65
2022/08/30 10:29:30;;;;;;;2.13;1.93;;;19.50;99.90;;;;;;5086210;28;20541;-65
2022/08/30 10:32:03;;;;;;;1.83;1.73;;;19.40;99.90;;;;;;5085813;28;20457;-65
2022/08/30 10:34:40;;;;;;;2.03;1.93;;;19.40;99.90;;;;;;5086467;28;20825;-65
2022/08/30 10:37:17;;;;;;;1.60;1.47;;;19.30;99.90;;;;;;5085207;28;20432;-66
2022/08/30 10:39:51;;;;;;;2.00;1.77;;;19.30;99.90;;;;;;5085732;28;20517;-65
2022/08/30 10:42:29;;;;;;;1.70;1.60;;;19.30;99.90;;;;;;5086013;28;20442;-65
2022/08/30 10:45:06;;;;;;;2.70;2.00;;;19.30;99.90;;;;;;5086043;28;20545;-65
2022/08/30 10:47:41;;;;;;;2.70;2.40;;;19.30;99.90;;;;;;5085711;28;20449;-64
2022/08/30 10:50:18;;;;;;;3.70;1.70;;;19.30;99.90;;;;;;5086032;28;20429;-64
2022/08/30 10:52:56;;;;;;;2.00;1.90;;;19.40;99.90;;;;;;5085150;28;20442;-65
2022/08/30 10:55:29;;;;;;;2.00;1.80;;;19.40;99.90;;;;;;5085894;28;20556;-65
2022/08/30 10:58:02;;;;;;;2.00;1.80;;;19.30;99.90;;;;;;5085023;28;20483;-65
2022/08/30 11:00:42;;;;;;;2.30;2.10;;;19.30;99.90;;;;;;5085623;28;20447;-65
2022/08/30 11:03:59;;;;;;;2.53;2.33;;;19.20;99.90;;;;;;5085552;28;20454;-65
2022/08/30 11:06:36;;;;;;;2.40;2.20;;;19.20;99.90;;;;;;5085406;28;20842;-65
2022/08/30 11:09:44;;;;;;;2.37;1.77;;;19.20;99.90;;;;;;5085466;28;20428;-64
2022/08/30 11:12:29;;;;;;;1.93;1.73;;;19.10;99.90;;;;;;5085360;28;20432;-65
2022/08/30 11:15:11;;;;;;;2.30;2.10;;;19.00;99.90;;;;;;5085420;28;20458;-65
2022/08/30 11:17:54;;;;;;;2.10;1.90;;;19.00;99.90;;;;;;5085280;28;20445;-65
2022/08/30 11:20:35;;;;;;;2.50;2.13;;;19.00;99.90;;;;;;5085090;28;20531;-65
2022/08/30 11:23:29;;;;;;;2.37;2.17;;;19.00;99.90;;;;;;5084724;28;20429;-65
2022/08/30 11:26:06;;;;;;;2.63;2.37;;;18.90;99.90;;;;;;5085075;28;20418;-65
2022/08/30 11:29:06;;;;;;;2.77;2.07;;;18.90;99.90;;;;;;5084966;28;20418;-65
2022/08/30 11:31:42;;;;;;;2.73;2.30;;;18.80;99.90;;;;;;5084680;28;20555;-66
2022/08/30 11:34:55;;;;;;;2.37;2.17;;;18.90;99.90;;;;;;5085458;28;20469;-65
2022/08/30 11:37:36;;;;;;;2.37;2.20;;;18.80;99.90;;;;;;5084504;28;20414;-65
2022/08/30 11:40:48;;;;;;;1.87;1.77;;;18.80;99.90;;;;;;5084612;28;20495;-65
2022/08/30 11:43:56;;;;;;;3.07;2.47;;;18.80;99.90;;;;;;5084958;28;20494;-65
2022/08/30 11:46:39;;;;;;;2.00;1.80;;;18.80;99.90;;;;;;5084911;28;20407;-65
2022/08/30 11:49:33;;;;;;;2.20;2.00;;;18.70;99.90;;;;;;5084856;28;20418;-65
2022/08/30 11:52:36;;;;;;;5.70;2.93;;;18.60;99.90;;;;;;5084171;28;20428;-65
2022/08/30 11:55:25;;;;;;;2.23;2.03;;;18.50;99.90;;;;;;5082464;28;20850;-65
2022/08/30 11:58:08;;;;;;;2.33;1.97;;;18.50;99.90;;;;;;5084172;28;20464;-65
2022/08/30 12:00:46;;;;;;;2.37;2.17;;;18.40;99.90;;;;;;5084144;28;20788;-65
2022/08/30 12:03:33;;;;;;;3.07;2.40;;;18.40;99.90;;;;;;5084192;28;20487;-65
2022/08/30 12:06:05;;;;;;;2.30;2.10;;;18.40;99.90;;;;;;5083759;28;20425;-64
2022/08/30 12:08:57;;;;;;;2.23;1.93;;;18.40;99.90;;;;;;5084336;28;20448;-64
2022/08/30 12:12:05;;;;;;;2.30;2.20;;;18.20;99.90;;;;;;5081745;28;20516;-65
2022/08/30 12:14:50;;;;;;;2.57;2.30;;;18.20;99.90;;;;;;5084142;28;20422;-65
2022/08/30 12:20:23;;;;;;;2.33;1.73;;;18.10;99.90;;;;;;5083415;28;20513;-65
2022/08/30 12:22:55;;;;;;;2.27;2.07;;;18.10;99.90;;;;;;5083182;28;20406;-64
2022/08/30 12:25:33;;;;;;;2.47;2.27;;;18.20;99.90;;;;;;5084069;28;20425;-65
2022/08/30 12:28:12;;;;;;;2.67;2.47;;;18.20;99.90;;;;;;5083566;28;20458;-65
2022/08/30 12:30:44;;;;;;;2.93;2.37;;;18.10;99.90;;;;;;5083463;28;20458;-65
2022/08/30 12:33:30;;;;;;;2.47;2.23;;;18.10;99.90;;;;;;5083558;28;20462;-65
2022/08/30 12:36:14;;;;;;;2.30;2.03;;;18.00;99.90;;;;;;5083278;28;20528;-65
2022/08/30 12:38:47;;;;;;;2.90;2.13;;;18.00;99.90;;;;;;5083410;28;20458;-65
2022/08/30 12:41:22;;;;;;;2.70;2.50;;;18.00;99.90;;;;;;5083684;28;20414;-65
2022/08/30 12:43:53;;;;;;;2.80;2.60;;;17.90;99.90;;;;;;5083428;28;20470;-65
2022/08/30 12:46:24;;;;;;;2.43;2.13;;;17.90;99.90;;;;;;5083141;28;20429;-65
2022/08/30 12:48:56;;;;;;;2.03;1.93;;;17.90;99.90;;;;;;5083632;28;20426;-65
2022/08/30 12:51:37;;;;;;;2.30;2.10;;;17.80;99.90;;;;;;5083013;28;20450;-65
2022/08/30 12:54:20;;;;;;;2.97;2.20;;;17.80;99.90;;;;;;5083554;28;20436;-64
2022/08/30 12:57:01;;;;;;;2.53;2.33;;;17.80;99.90;;;;;;5083199;28;20451;-65
2022/08/30 12:59:56;;;;;;;3.27;2.27;;;17.70;99.90;;;;;;5083425;28;20465;-65
2022/08/30 13:02:44;;;;;;;2.40;2.20;;;17.70;99.90;;;;;;5083562;28;20441;-65
2022/08/30 13:05:44;;;;;;;2.10;1.90;;;17.70;99.90;;;;;;5083936;28;20428;-64
2022/08/30 13:08:19;;;;;;;2.93;2.33;;;17.70;99.90;;;;;;5083679;28;20485;-65
2022/08/30 13:10:58;;;;;;;2.40;2.20;;;17.70;99.90;;;;;;5083162;28;20794;-65
2022/08/30 13:13:40;;;;;;;3.30;2.40;;;17.60;99.90;;;;;;5083127;28;20455;-64
2022/08/30 13:16:23;;;;;;;4.70;3.07;;;17.50;99.90;;;;;;5083162;28;20538;-64
2022/08/30 13:19:24;;;;;;;3.03;2.53;;;17.50;99.90;;;;;;5083252;28;20450;-64
2022/08/30 13:21:57;;;;;;;2.03;1.83;;;17.50;99.90;;;;;;5082285;28;20535;-65
2022/08/30 13:24:29;;;;;;;2.97;2.40;;;17.50;99.90;;;;;;5087307;28;20485;-64
2022/08/30 13:27:10;;;;;;;2.73;2.33;;;17.40;99.90;;;;;;5087064;28;20424;-65
2022/08/30 13:29:42;;;;;;;2.13;1.97;;;17.40;99.90;;;;;;5087498;28;20427;-64
2022/08/30 13:32:13;;;;;;;2.93;2.47;;;17.40;99.90;;;;;;5086322;28;20531;-64
2022/08/30 13:34:44;;;;;;;2.30;2.10;;;17.40;99.90;;;;;;5086772;28;20451;-64
2022/08/30 13:37:21;;;;;;;3.03;2.60;;;17.40;99.90;;;;;;5086202;28;20454;-64
2022/08/30 13:40:14;;;;;;;2.77;2.20;;;17.40;99.90;;;;;;5086318;28;20494;-65